Schneifelwetter: Wetterstation Hallschlag, 537 m . NN
Wetterdaten: Mittwoch, 24.08.2011
Datum Zeit Temp. A. Feuchte A. Luftdruck Regen Wind Richtung Richtung Sonnenschein Helligkeit T Regen Taupunkt Windchill
24.08.2011 00:09 15,9 C 85 % 1015 hPa 0,0 l/m 0,1 km/h (0 Bft) W-SW 245 0 min 0 lux 0 min 13,4 C 15,9 C
24.08.2011 00:24 16,1 C 86 % 1015 hPa 0,0 l/m 3,4 km/h (1 Bft) W-SW 245 0 min 0 lux 0 min 13,8 C 16,1 C
24.08.2011 00:39 16,1 C 86 % 1015 hPa 0,0 l/m 0,0 km/h (0 Bft) W-SW 245 0 min 0 lux 0 min 13,8 C 16,1 C
24.08.2011 00:54 15,8 C 85 % 1015 hPa 0,0 l/m 0,0 km/h (0 Bft) W-SW 245 0 min 0 lux 0 min 13,3 C 15,8 C
24.08.2011 01:09 15,3 C 85 % 1015 hPa 0,0 l/m 0,0 km/h (0 Bft) W-SW 245 0 min 0 lux 0 min 12,8 C 15,3 C
24.08.2011 01:24 15,0 C 86 % 1015 hPa 0,0 l/m 0,0 km/h (0 Bft) W-SW 245 0 min 0 lux 0 min 12,7 C 15,0 C
24.08.2011 01:39 14,6 C 87 % 1015 hPa 0,0 l/m 0,0 km/h (0 Bft) W-SW 245 0 min 0 lux 0 min 12,5 C 14,6 C
24.08.2011 01:54 14,4 C 88 % 1015 hPa 0,0 l/m 0,0 km/h (0 Bft) W-SW 245 0 min 0 lux 0 min 12,4 C 14,4 C
24.08.2011 02:09 14,4 C 88 % 1015 hPa 0,0 l/m 0,0 km/h (0 Bft) W-SW 245 0 min 0 lux 0 min 12,4 C 14,4 C
24.08.2011 02:24 14,2 C 88 % 1015 hPa 0,0 l/m 0,0 km/h (0 Bft) W-SW 245 0 min 0 lux 0 min 12,2 C 14,2 C
24.08.2011 02:39 14,0 C 89 % 1015 hPa 0,0 l/m 0,0 km/h (0 Bft) W-SW 245 0 min 0 lux 0 min 12,2 C 14,0 C
24.08.2011 02:54 13,8 C 89 % 1015 hPa 0,0 l/m 0,0 km/h (0 Bft) W-SW 245 0 min 0 lux 0 min 12,0 C 13,8 C
24.08.2011 03:09 13,6 C 89 % 1015 hPa 0,0 l/m 0,0 km/h (0 Bft) W-SW 245 0 min 0 lux 0 min 11,8 C 13,6 C
24.08.2011 03:24 13,3 C 89 % 1015 hPa 0,0 l/m 0,0 km/h (0 Bft) W-SW 245 0 min 0 lux 0 min 11,5 C 13,3 C
24.08.2011 03:39 13,1 C 90 % 1015 hPa 0,0 l/m 0,0 km/h (0 Bft) W-SW 245 0 min 0 lux 0 min 11,5 C 13,1 C
24.08.2011 03:54 12,9 C 91 % 1015 hPa 0,0 l/m 0,0 km/h (0 Bft) W-SW 245 0 min 0 lux 0 min 11,5 C 12,9 C
24.08.2011 04:09 12,8 C 91 % 1015 hPa 0,0 l/m 0,0 km/h (0 Bft) W-SW 245 0 min 0 lux 0 min 11,4 C 12,8 C
24.08.2011 04:24 12,8 C 91 % 1015 hPa 0,0 l/m 0,0 km/h (0 Bft) W-SW 245 0 min 0 lux 0 min 11,4 C 12,8 C
24.08.2011 04:39 12,8 C 91 % 1015 hPa 0,0 l/m 0,0 km/h (0 Bft) W-SW 245 0 min 0 lux 0 min 11,4 C 12,8 C
24.08.2011 04:54 12,7 C 92 % 1015 hPa 0,0 l/m 0,0 km/h (0 Bft) W-SW 245 0 min 0 lux 0 min 11,4 C 12,7 C
24.08.2011 05:09 12,4 C 92 % 1015 hPa 0,0 l/m 0,0 km/h (0 Bft) W-SW 245 0 min 0 lux 0 min 11,1 C 12,4 C
24.08.2011 05:24 12,2 C 92 % 1015 hPa 0,0 l/m 0,0 km/h (0 Bft) W-SW 245 0 min 0 lux 0 min 10,9 C 12,2 C
24.08.2011 05:39 12,1 C 92 % 1015 hPa 0,0 l/m 0,0 km/h (0 Bft) W-SW 245 0 min 0 lux 0 min 10,8 C 12,1 C
24.08.2011 05:54 12,1 C 92 % 1015 hPa 0,0 l/m 0,0 km/h (0 Bft) W-SW 245 0 min 0 lux 0 min 10,8 C 12,1 C
24.08.2011 06:09 12,1 C 93 % 1015 hPa 0,0 l/m 0,0 km/h (0 Bft) W-SW 245 0 min 0 lux 0 min 11,0 C 12,1 C
24.08.2011 06:24 12,0 C 93 % 1015 hPa 0,0 l/m 0,0 km/h (0 Bft) W-SW 245 0 min 223 lux 0 min 10,9 C 12,0 C
24.08.2011 06:39 12,1 C 93 % 1015 hPa 0,0 l/m 0,0 km/h (0 Bft) W-SW 245 0 min 872 lux 0 min 11,0 C 12,1 C
24.08.2011 06:54 12,1 C 93 % 1015 hPa 0,0 l/m 0,0 km/h (0 Bft) W-SW 245 0 min 2,03 klux 0 min 11,0 C 12,1 C
24.08.2011 07:09 12,1 C 93 % 1015 hPa 0,0 l/m 0,0 km/h (0 Bft) W-SW 245 0 min 5,27 klux 0 min 11,0 C 12,1 C
24.08.2011 07:24 12,4 C 94 % 1015 hPa 0,0 l/m 0,0 km/h (0 Bft) W-SW 245 0 min 13,7 klux 0 min 11,5 C 12,4 C
24.08.2011 07:39 13,0 C 94 % 1015 hPa 0,0 l/m 6,4 km/h (2 Bft) W-SW 245 0 min 16,7 klux 0 min 12,1 C 13,0 C
24.08.2011 08:00 14,4 C 96 % 1015 hPa 0,0 l/m 12,8 km/h (3 Bft) S-SW45 210 0 min 20,7 klux 0 min 13,8 C 11,3 C
24.08.2011 08:15 15,8 C 96 % 1016 hPa 0,0 l/m 15,5 km/h (3 Bft) SW22.5 215 0 min 22,1 klux 0 min 15,2 C 12,0 C
24.08.2011 08:30 16,7 C 92 % 1015 hPa 0,0 l/m 19,0 km/h (3 Bft) S-SW45 210 0 min 23,8 klux 0 min 15,4 C 12,2 C
24.08.2011 08:45 16,8 C 90 % 1015 hPa 0,0 l/m 14,3 km/h (3 Bft) S-SW45 210 0 min 9,0 klux 0 min 15,1 C 13,6 C
24.08.2011 09:01 17,2 C 89 % 1015 hPa 0,0 l/m 21,0 km/h (4 Bft) SW22.5 220 0 min 11,9 klux 0 min 15,4 C 12,4 C
24.08.2011 09:16 17,6 C 88 % 1015 hPa 0,0 l/m 20,8 km/h (4 Bft) SW45 225 0 min 25,6 klux 0 min 15,6 C 12,9 C
24.08.2011 09:30 18,4 C 86 % 1015 hPa 0,0 l/m 17,0 km/h (3 Bft) S45 190 0 min 44,9 klux 0 min 16,0 C 14,8 C
24.08.2011 09:45 19,3 C 82 % 1015 hPa 0,0 l/m 19,5 km/h (3 Bft) SW67.5 215 0 min 47,8 klux 0 min 16,1 C 15,4 C
24.08.2011 10:00 20,0 C 80 % 1015 hPa 0,0 l/m 27,9 km/h (4 Bft) SW67.5 225 0 min 54,1 klux 0 min 16,4 C 15,0 C
24.08.2011 10:15 20,7 C 77 % 1015 hPa 0,0 l/m 26,9 km/h (4 Bft) W45 260 0 min 57,2 klux 0 min 16,5 C 16,1 C
24.08.2011 10:31 21,4 C 76 % 1015 hPa 0,0 l/m 25,1 km/h (4 Bft) SW45 220 0 min 59,0 klux 0 min 17,0 C 17,3 C
24.08.2011 10:46 22,3 C 73 % 1015 hPa 0,0 l/m 26,3 km/h (4 Bft) W67.5 260 15 min 64,4 klux 0 min 17,2 C 18,3 C
24.08.2011 11:00 22,7 C 72 % 1014 hPa 0,0 l/m 29,5 km/h (5 Bft) SW67.5 230 14 min 66,8 klux 0 min 17,4 C 18,6 C
24.08.2011 11:15 23,2 C 70 % 1014 hPa 0,0 l/m 29,3 km/h (5 Bft) W45 260 15 min 80,8 klux 0 min 17,4 C 19,3 C
24.08.2011 11:30 22,6 C 69 % 1015 hPa 0,0 l/m 32,1 km/h (5 Bft) W-SW45 240 0 min 59,4 klux 0 min 16,6 C 18,2 C
24.08.2011 11:45 22,2 C 71 % 1015 hPa 0,0 l/m 24,7 km/h (4 Bft) W-SW67.5 240 15 min 63,3 klux 0 min 16,7 C 18,4 C
24.08.2011 12:01 22,6 C 69 % 1015 hPa 0,0 l/m 27,9 km/h (4 Bft) W-SW67.5 245 16 min 78,0 klux 0 min 16,6 C 18,6 C
24.08.2011 12:16 23,1 C 66 % 1015 hPa 0,0 l/m 33,0 km/h (5 Bft) W-SW45 255 15 min 74,1 klux 0 min 16,4 C 18,8 C
24.08.2011 12:30 23,4 C 66 % 1015 hPa 0,0 l/m 34,5 km/h (5 Bft) W-SW22.5 255 14 min 78,5 klux 0 min 16,7 C 19,1 C
24.08.2011 12:45 23,9 C 61 % 1015 hPa 0,0 l/m 32,5 km/h (5 Bft) SW45 220 15 min 93,2 klux 0 min 15,9 C 20,0 C
24.08.2011 13:00 24,1 C 60 % 1015 hPa 0,0 l/m 32,1 km/h (5 Bft) W-SW45 240 0 min 47,5 klux 0 min 15,8 C 20,3 C
24.08.2011 13:15 23,4 C 61 % 1015 hPa 0,0 l/m 31,1 km/h (5 Bft) W45 265 0 min 40,2 klux 0 min 15,4 C 19,4 C
24.08.2011 13:31 22,9 C 63 % 1015 hPa 0,0 l/m 28,7 km/h (4 Bft) SW45 215 0 min 50,3 klux 0 min 15,5 C 18,9 C
24.08.2011 13:46 22,8 C 63 % 1015 hPa 0,0 l/m 23,6 km/h (4 Bft) SW45 225 0 min 60,2 klux 0 min 15,4 C 19,3 C
24.08.2011 14:00 21,8 C 67 % 1015 hPa 0,0 l/m 23,8 km/h (4 Bft) W-SW22.5 255 0 min 19,7 klux 0 min 15,4 C 18,0 C
24.08.2011 14:15 20,3 C 73 % 1015 hPa 0,0 l/m 23,3 km/h (4 Bft) W-SW45 255 0 min 13,1 klux 0 min 15,3 C 16,0 C
24.08.2011 14:30 19,3 C 76 % 1015 hPa 0,0 l/m 17,4 km/h (3 Bft) W-SW22.5 250 0 min 30,1 klux 0 min 15,0 C 15,8 C
24.08.2011 14:45 19,2 C 78 % 1015 hPa 0,0 l/m 14,6 km/h (3 Bft) SW22.5 215 0 min 34,9 klux 0 min 15,3 C 16,4 C
24.08.2011 15:01 18,8 C 79 % 1015 hPa 0,0 l/m 15,2 km/h (3 Bft) S-SW22.5 205 0 min 15,8 klux 0 min 15,1 C 15,7 C
24.08.2011 15:16 18,8 C 82 % 1015 hPa 0,0 l/m 4,3 km/h (1 Bft) S-SW 210 0 min 25,8 klux 0 min 15,7 C 18,8 C
24.08.2011 15:30 18,9 C 81 % 1015 hPa 0,0 l/m 17,6 km/h (3 Bft) S-SW45 205 0 min 27,1 klux 0 min 15,6 C 15,3 C
24.08.2011 15:45 19,0 C 82 % 1015 hPa 0,0 l/m 9,2 km/h (2 Bft) S 185 0 min 24,4 klux 0 min 15,9 C 17,8 C
24.08.2011 16:00 18,7 C 83 % 1015 hPa 0,0 l/m 11,8 km/h (2 Bft) S-SW22.5 195 0 min 17,6 klux 0 min 15,8 C 16,6 C
24.08.2011 16:15 19,0 C 83 % 1015 hPa 0,0 l/m 12,8 km/h (3 Bft) SW22.5 220 0 min 35,6 klux 0 min 16,0 C 16,6 C
24.08.2011 16:31 19,8 C 81 % 1015 hPa 0,0 l/m 19,4 km/h (3 Bft) S-SW45 210 0 min 54,2 klux 0 min 16,4 C 16,1 C
24.08.2011 16:46 19,7 C 80 % 1015 hPa 0,0 l/m 19,5 km/h (3 Bft) W-SW22.5 250 0 min 31,3 klux 0 min 16,1 C 15,9 C
24.08.2011 17:00 19,4 C 80 % 1015 hPa 0,0 l/m 22,1 km/h (4 Bft) W22.5 260 0 min 18,4 klux 0 min 15,9 C 15,0 C
24.08.2011 17:15 19,3 C 80 % 1015 hPa 0,0 l/m 23,4 km/h (4 Bft) W-SW67.5 250 0 min 19,6 klux 0 min 15,8 C 14,7 C
24.08.2011 17:30 19,3 C 79 % 1015 hPa 0,0 l/m 19,1 km/h (3 Bft) W22.5 265 0 min 23,0 klux 0 min 15,6 C 15,5 C
24.08.2011 17:45 19,1 C 79 % 1015 hPa 1,2 l/m 18,6 km/h (3 Bft) W45 270 0 min 20,1 klux 15 min 15,4 C 15,3 C
24.08.2011 18:01 19,5 C 78 % 1015 hPa 0,0 l/m 19,7 km/h (3 Bft) W-SW45 245 16 min 70,4 klux 0 min 15,6 C 15,6 C
24.08.2011 18:16 19,9 C 76 % 1015 hPa 0,0 l/m 25,8 km/h (4 Bft) W45 260 0 min 45,7 klux 0 min 15,5 C 15,1 C
24.08.2011 18:30 19,6 C 76 % 1015 hPa 0,0 l/m 23,3 km/h (4 Bft) W-SW22.5 250 0 min 40,5 klux 0 min 15,2 C 15,1 C
24.08.2011 18:45 19,2 C 77 % 1015 hPa 0,0 l/m 24,2 km/h (4 Bft) W-SW45 240 0 min 29,6 klux 0 min 15,1 C 14,4 C
24.08.2011 19:00 18,5 C 78 % 1015 hPa 0,0 l/m 15,1 km/h (3 Bft) W-SW67.5 240 0 min 7,30 klux 0 min 14,6 C 15,4 C
24.08.2011 19:15 18,1 C 80 % 1015 hPa 0,0 l/m 11,0 km/h (2 Bft) SW22.5 235 0 min 4,25 klux 0 min 14,6 C 16,2 C
24.08.2011 19:31 17,8 C 81 % 1015 hPa 0,0 l/m 12,0 km/h (2 Bft) SW22.5 225 0 min 5,16 klux 0 min 14,5 C 15,5 C
24.08.2011 19:46 17,8 C 82 % 1015 hPa 0,0 l/m 17,1 km/h (3 Bft) W-SW45 250 0 min 12,5 klux 0 min 14,7 C 14,0 C
24.08.2011 20:00 17,8 C 81 % 1015 hPa 0,0 l/m 10,0 km/h (2 Bft) W-SW 255 0 min 12,6 klux 0 min 14,5 C 16,2 C
24.08.2011 20:15 17,6 C 81 % 1015 hPa 0,0 l/m 14,5 km/h (3 Bft) W-SW22.5 250 0 min 5,01 klux 0 min 14,3 C 14,5 C
24.08.2011 20:30 17,4 C 81 % 1015 hPa 0,0 l/m 9,2 km/h (2 Bft) W 260 0 min 3,13 klux 0 min 14,1 C 16,1 C
24.08.2011 20:45 16,8 C 80 % 1015 hPa 0,0 l/m 14,5 km/h (3 Bft) W-SW22.5 255 0 min 1,69 klux 0 min 13,3 C 13,5 C
24.08.2011 21:01 16,1 C 80 % 1015 hPa 0,0 l/m 0,3 km/h (0 Bft) W 260 0 min 156 lux 0 min 12,6 C 16,1 C
24.08.2011 21:16 15,0 C 80 % 1015 hPa 0,0 l/m 0,0 km/h (0 Bft) W 260 0 min 21 lux 0 min 11,6 C 15,0 C
24.08.2011 21:30 14,3 C 82 % 1016 hPa 0,0 l/m 0,0 km/h (0 Bft) W 260 0 min 0 lux 0 min 11,3 C 14,3 C
24.08.2011 21:45 13,7 C 83 % 1016 hPa 0,0 l/m 0,0 km/h (0 Bft) W 260 0 min 0 lux 0 min 10,9 C 13,7 C
24.08.2011 22:00 13,1 C 84 % 1016 hPa 0,0 l/m 0,0 km/h (0 Bft) W 260 0 min 0 lux 0 min 10,5 C 13,1 C
24.08.2011 22:15 12,6 C 85 % 1016 hPa 0,0 l/m 0,0 km/h (0 Bft) W 260 0 min 0 lux 0 min 10,1 C 12,6 C
24.08.2011 22:31 12,2 C 86 % 1016 hPa 0,0 l/m 0,0 km/h (0 Bft) W 260 0 min 0 lux 0 min 9,9 C 12,2 C
24.08.2011 22:46 12,0 C 87 % 1016 hPa 0,0 l/m 0,0 km/h (0 Bft) W 260 0 min 0 lux 0 min 9,9 C 12,0 C
24.08.2011 23:00 11,8 C 88 % 1016 hPa 0,0 l/m 0,0 km/h (0 Bft) W 260 0 min 0 lux 0 min 9,9 C 11,8 C
24.08.2011 23:15 11,6 C 89 % 1016 hPa 0,0 l/m 0,0 km/h (0 Bft) W 260 0 min 0 lux 0 min 9,8 C 11,6 C
24.08.2011 23:30 11,2 C 88 % 1016 hPa 0,0 l/m 0,0 km/h (0 Bft) W 260 0 min 0 lux 0 min 9,3 C 11,2 C
24.08.2011 23:45 11,0 C 88 % 1016 hPa 0,0 l/m 0,0 km/h (0 Bft) W 260 0 min 0 lux 0 min 9,1 C 11,0 C
_ Min-Zeit 23:45 13:00 11:00 - 00:39 - - - - - 23:45 23:45
Minimum _ 11,0 C 60 % 1014 hPa - 0,0 km/h (0 Bft) - - - - - 9,1 C 11,0 C
_ Max-Zeit 13:00 08:00 08:15 17:45 12:30 - - 12:01 12:45 17:45 11:15 13:00
Maximum _ 24,1 C 96 % 1016 hPa 1,2 l/m 34,5 km/h
W-SW (5 Bft)
- - 16 min 93,2 klux 15 min 17,4 C 20,3 C
Durchschnitt _ 16,8 C 83 % 1015 hPa #1,2 l/m 11,5 km/h (2 Bft) W-SW - #2:15 h 20,3 klux #15 min. 13,7 C 14,9 C